sensor_id;sensor_type;location;lat;lon;timestamp;pressure;altitude;pressure_sealevel;temperature;humidity
70338;BME280;57757;53.198;19.646;2023-06-26T00:00:42;100193.77;;;17.47;44.05
70338;BME280;57757;53.198;19.646;2023-06-26T00:03:28;100191.52;;;17.44;44.15
70338;BME280;57757;53.198;19.646;2023-06-26T00:05:55;100189.94;;;17.40;44.19
70338;BME280;57757;53.198;19.646;2023-06-26T00:08:24;100187.63;;;17.37;44.44
70338;BME280;57757;53.198;19.646;2023-06-26T00:10:50;100189.88;;;17.35;44.45
70338;BME280;57757;53.198;19.646;2023-06-26T00:13:17;100186.85;;;17.32;44.47
70338;BME280;57757;53.198;19.646;2023-06-26T00:15:43;100186.66;;;17.29;44.62
70338;BME280;57757;53.198;19.646;2023-06-26T00:18:09;100186.16;;;17.25;44.73
70338;BME280;57757;53.198;19.646;2023-06-26T00:20:35;100187.15;;;17.19;44.81
70338;BME280;57757;53.198;19.646;2023-06-26T00:23:02;100188.82;;;17.14;44.99
70338;BME280;57757;53.198;19.646;2023-06-26T00:25:29;100188.45;;;17.11;45.09
70338;BME280;57757;53.198;19.646;2023-06-26T00:27:55;100187.36;;;17.08;45.23
70338;BME280;57757;53.198;19.646;2023-06-26T00:30:21;100189.55;;;17.06;45.29
70338;BME280;57757;53.198;19.646;2023-06-26T00:32:47;100187.57;;;17.04;45.37
70338;BME280;57757;53.198;19.646;2023-06-26T00:35:13;100191.02;;;17.02;45.45
70338;BME280;57757;53.198;19.646;2023-06-26T00:37:39;100193.61;;;16.99;45.43
70338;BME280;57757;53.198;19.646;2023-06-26T00:40:06;100189.73;;;16.96;45.63
70338;BME280;57757;53.198;19.646;2023-06-26T00:42:32;100191.41;;;16.94;45.68
70338;BME280;57757;53.198;19.646;2023-06-26T00:44:58;100189.44;;;16.91;45.77
70338;BME280;57757;53.198;19.646;2023-06-26T00:47:24;100189.44;;;16.88;45.88
70338;BME280;57757;53.198;19.646;2023-06-26T00:49:51;100188.77;;;16.84;45.77
70338;BME280;57757;53.198;19.646;2023-06-26T00:52:17;100192.42;;;16.81;45.92
70338;BME280;57757;53.198;19.646;2023-06-26T00:54:44;100187.56;;;16.80;46.08
70338;BME280;57757;53.198;19.646;2023-06-26T00:57:10;100185.40;;;16.77;46.27
70338;BME280;57757;53.198;19.646;2023-06-26T00:59:36;100181.41;;;16.76;46.50
70338;BME280;57757;53.198;19.646;2023-06-26T01:02:02;100181.36;;;16.73;46.62
70338;BME280;57757;53.198;19.646;2023-06-26T01:04:28;100181.70;;;16.70;46.62
70338;BME280;57757;53.198;19.646;2023-06-26T01:06:59;100176.91;;;16.67;46.67
70338;BME280;57757;53.198;19.646;2023-06-26T01:09:25;100178.84;;;16.64;46.77
70338;BME280;57757;53.198;19.646;2023-06-26T01:11:52;100173.93;;;16.60;46.85
70338;BME280;57757;53.198;19.646;2023-06-26T01:14:18;100174.29;;;16.56;46.90
70338;BME280;57757;53.198;19.646;2023-06-26T01:16:45;100178.27;;;16.53;47.08
70338;BME280;57757;53.198;19.646;2023-06-26T01:19:23;100173.47;;;16.51;47.19
70338;BME280;57757;53.198;19.646;2023-06-26T01:22:10;100173.69;;;16.50;47.20
70338;BME280;57757;53.198;19.646;2023-06-26T01:25:01;100171.67;;;16.48;47.38
70338;BME280;57757;53.198;19.646;2023-06-26T01:27:30;100168.98;;;16.46;47.45
70338;BME280;57757;53.198;19.646;2023-06-26T01:30:00;100170.13;;;16.44;47.63
70338;BME280;57757;53.198;19.646;2023-06-26T01:32:29;100168.02;;;16.40;47.67
70338;BME280;57757;53.198;19.646;2023-06-26T01:34:56;100164.81;;;16.37;47.69
70338;BME280;57757;53.198;19.646;2023-06-26T01:37:23;100164.02;;;16.36;47.88
70338;BME280;57757;53.198;19.646;2023-06-26T01:39:49;100162.83;;;16.35;48.00
70338;BME280;57757;53.198;19.646;2023-06-26T01:42:15;100162.52;;;16.34;48.11
70338;BME280;57757;53.198;19.646;2023-06-26T01:44:45;100160.84;;;16.33;48.28
70338;BME280;57757;53.198;19.646;2023-06-26T01:47:15;100159.70;;;16.31;48.19
70338;BME280;57757;53.198;19.646;2023-06-26T01:49:49;100154.21;;;16.28;48.38
70338;BME280;57757;53.198;19.646;2023-06-26T01:52:27;100153.36;;;16.27;48.44
70338;BME280;57757;53.198;19.646;2023-06-26T01:57:38;100150.25;;;16.22;48.66
70338;BME280;57757;53.198;19.646;2023-06-26T02:00:05;100151.92;;;16.21;48.68
70338;BME280;57757;53.198;19.646;2023-06-26T02:02:36;100154.42;;;16.20;48.91
70338;BME280;57757;53.198;19.646;2023-06-26T02:05:02;100153.27;;;16.18;48.92
70338;BME280;57757;53.198;19.646;2023-06-26T02:07:28;100149.36;;;16.15;48.99
70338;BME280;57757;53.198;19.646;2023-06-26T02:09:55;100150.00;;;16.13;49.06
70338;BME280;57757;53.198;19.646;2023-06-26T02:12:21;100144.88;;;16.10;49.07
70338;BME280;57757;53.198;19.646;2023-06-26T02:14:47;100145.92;;;16.07;49.13
70338;BME280;57757;53.198;19.646;2023-06-26T02:17:13;100143.42;;;16.04;49.16
70338;BME280;57757;53.198;19.646;2023-06-26T02:19:39;100142.85;;;16.01;49.24
70338;BME280;57757;53.198;19.646;2023-06-26T02:22:11;100147.13;;;16.00;49.49
70338;BME280;57757;53.198;19.646;2023-06-26T02:24:37;100146.17;;;15.98;49.61
70338;BME280;57757;53.198;19.646;2023-06-26T02:27:03;100144.16;;;15.96;49.69
70338;BME280;57757;53.198;19.646;2023-06-26T02:29:29;100141.56;;;15.95;49.69
70338;BME280;57757;53.198;19.646;2023-06-26T02:31:55;100142.62;;;15.95;49.85
70338;BME280;57757;53.198;19.646;2023-06-26T02:34:21;100139.69;;;15.93;49.92
70338;BME280;57757;53.198;19.646;2023-06-26T02:36:47;100143.95;;;15.93;49.90
70338;BME280;57757;53.198;19.646;2023-06-26T02:39:13;100141.31;;;15.93;50.05
70338;BME280;57757;53.198;19.646;2023-06-26T02:41:40;100143.40;;;15.93;50.14
70338;BME280;57757;53.198;19.646;2023-06-26T02:44:06;100145.48;;;15.93;50.21
70338;BME280;57757;53.198;19.646;2023-06-26T02:46:32;100142.16;;;15.94;50.20
70338;BME280;57757;53.198;19.646;2023-06-26T02:48:59;100138.70;;;15.92;50.22
70338;BME280;57757;53.198;19.646;2023-06-26T02:51:25;100140.63;;;15.92;50.34
70338;BME280;57757;53.198;19.646;2023-06-26T02:53:51;100140.20;;;15.90;50.42
70338;BME280;57757;53.198;19.646;2023-06-26T02:56:17;100140.77;;;15.90;50.45
70338;BME280;57757;53.198;19.646;2023-06-26T02:58:43;100139.69;;;15.90;50.47
70338;BME280;57757;53.198;19.646;2023-06-26T03:01:09;100142.71;;;15.89;50.55
70338;BME280;57757;53.198;19.646;2023-06-26T03:03:35;100142.39;;;15.88;50.80
70338;BME280;57757;53.198;19.646;2023-06-26T03:06:07;100145.02;;;15.88;50.67
70338;BME280;57757;53.198;19.646;2023-06-26T03:08:36;100143.96;;;15.88;50.78
70338;BME280;57757;53.198;19.646;2023-06-26T03:11:02;100146.01;;;15.86;50.82
70338;BME280;57757;53.198;19.646;2023-06-26T03:13:28;100146.64;;;15.84;50.86
70338;BME280;57757;53.198;19.646;2023-06-26T03:15:54;100150.30;;;15.84;51.02
70338;BME280;57757;53.198;19.646;2023-06-26T03:18:20;100149.46;;;15.84;51.02
70338;BME280;57757;53.198;19.646;2023-06-26T03:20:46;100147.88;;;15.84;51.23
70338;BME280;57757;53.198;19.646;2023-06-26T03:23:12;100144.77;;;15.87;51.37
70338;BME280;57757;53.198;19.646;2023-06-26T03:25:38;100141.05;;;15.91;51.40
70338;BME280;57757;53.198;19.646;2023-06-26T03:28:04;100143.77;;;15.96;51.44
70338;BME280;57757;53.198;19.646;2023-06-26T03:30:30;100144.13;;;16.00;51.50
70338;BME280;57757;53.198;19.646;2023-06-26T03:32:56;100140.24;;;16.04;51.65
70338;BME280;57757;53.198;19.646;2023-06-26T03:35:23;100139.84;;;16.09;51.66
70338;BME280;57757;53.198;19.646;2023-06-26T03:37:49;100140.63;;;16.15;51.56
70338;BME280;57757;53.198;19.646;2023-06-26T03:40:15;100140.56;;;16.20;51.66
70338;BME280;57757;53.198;19.646;2023-06-26T03:42:42;100137.64;;;16.26;51.94
70338;BME280;57757;53.198;19.646;2023-06-26T03:45:08;100137.58;;;16.34;51.99
70338;BME280;57757;53.198;19.646;2023-06-26T03:47:34;100137.74;;;16.42;52.01
70338;BME280;57757;53.198;19.646;2023-06-26T03:50:00;100137.49;;;16.47;51.93
70338;BME280;57757;53.198;19.646;2023-06-26T03:52:26;100138.10;;;16.53;52.09
70338;BME280;57757;53.198;19.646;2023-06-26T03:54:52;100138.83;;;16.60;52.08
70338;BME280;57757;53.198;19.646;2023-06-26T03:57:18;100140.07;;;16.66;52.21
70338;BME280;57757;53.198;19.646;2023-06-26T03:59:45;100136.27;;;16.73;52.18
70338;BME280;57757;53.198;19.646;2023-06-26T04:02:11;100138.62;;;16.79;52.23
70338;BME280;57757;53.198;19.646;2023-06-26T04:04:38;100135.83;;;16.85;52.21
70338;BME280;57757;53.198;19.646;2023-06-26T04:07:04;100135.23;;;16.90;52.19
70338;BME280;57757;53.198;19.646;2023-06-26T04:09:31;100136.78;;;16.94;52.15
70338;BME280;57757;53.198;19.646;2023-06-26T04:11:57;100136.15;;;16.96;52.13
70338;BME280;57757;53.198;19.646;2023-06-26T04:14:23;100136.07;;;16.98;52.21
70338;BME280;57757;53.198;19.646;2023-06-26T04:16:49;100137.23;;;17.02;52.28
70338;BME280;57757;53.198;19.646;2023-06-26T04:19:15;100137.77;;;17.09;52.30
70338;BME280;57757;53.198;19.646;2023-06-26T04:21:41;100134.67;;;17.15;52.32
70338;BME280;57757;53.198;19.646;2023-06-26T04:24:07;100134.96;;;17.22;52.32
70338;BME280;57757;53.198;19.646;2023-06-26T04:26:33;100133.16;;;17.30;52.36
70338;BME280;57757;53.198;19.646;2023-06-26T04:28:59;100132.27;;;17.37;52.32
70338;BME280;57757;53.198;19.646;2023-06-26T04:31:26;100130.12;;;17.44;52.34
70338;BME280;57757;53.198;19.646;2023-06-26T04:33:52;100130.42;;;17.52;52.35
70338;BME280;57757;53.198;19.646;2023-06-26T04:36:20;100136.08;;;17.62;52.35
70338;BME280;57757;53.198;19.646;2023-06-26T04:38:47;100133.09;;;17.72;52.54
70338;BME280;57757;53.198;19.646;2023-06-26T04:41:16;100128.05;;;17.84;52.66
70338;BME280;57757;53.198;19.646;2023-06-26T04:43:42;100125.41;;;17.97;52.60
70338;BME280;57757;53.198;19.646;2023-06-26T04:46:08;100126.50;;;18.09;52.59
70338;BME280;57757;53.198;19.646;2023-06-26T04:48:34;100128.21;;;18.22;52.60
70338;BME280;57757;53.198;19.646;2023-06-26T04:51:00;100129.59;;;18.35;52.48
70338;BME280;57757;53.198;19.646;2023-06-26T04:53:26;100127.02;;;18.46;52.49
70338;BME280;57757;53.198;19.646;2023-06-26T04:55:52;100127.39;;;18.55;52.40
70338;BME280;57757;53.198;19.646;2023-06-26T04:58:19;100125.99;;;18.68;52.49
70338;BME280;57757;53.198;19.646;2023-06-26T05:00:46;100126.02;;;18.80;52.46
70338;BME280;57757;53.198;19.646;2023-06-26T05:03:13;100125.12;;;18.92;52.51
70338;BME280;57757;53.198;19.646;2023-06-26T05:05:39;100124.58;;;19.04;52.53
70338;BME280;57757;53.198;19.646;2023-06-26T05:08:22;100122.54;;;19.14;52.53
70338;BME280;57757;53.198;19.646;2023-06-26T05:10:49;100125.19;;;19.26;52.45
70338;BME280;57757;53.198;19.646;2023-06-26T05:13:15;100121.27;;;19.35;52.43
70338;BME280;57757;53.198;19.646;2023-06-26T05:15:44;100123.02;;;19.45;52.47
70338;BME280;57757;53.198;19.646;2023-06-26T05:18:10;100120.79;;;19.58;52.50
70338;BME280;57757;53.198;19.646;2023-06-26T05:20:36;100117.83;;;19.72;52.47
70338;BME280;57757;53.198;19.646;2023-06-26T05:23:04;100113.83;;;19.85;52.46
70338;BME280;57757;53.198;19.646;2023-06-26T05:25:31;100112.85;;;19.97;52.31
70338;BME280;57757;53.198;19.646;2023-06-26T05:27:58;100109.70;;;20.08;52.35
70338;BME280;57757;53.198;19.646;2023-06-26T05:30:25;100109.64;;;20.20;52.26
70338;BME280;57757;53.198;19.646;2023-06-26T05:32:53;100107.58;;;20.30;52.18
70338;BME280;57757;53.198;19.646;2023-06-26T05:35:22;100103.51;;;20.38;52.20
70338;BME280;57757;53.198;19.646;2023-06-26T05:37:50;100108.13;;;20.49;52.09
70338;BME280;57757;53.198;19.646;2023-06-26T05:40:17;100107.30;;;20.59;52.03
70338;BME280;57757;53.198;19.646;2023-06-26T05:42:43;100109.22;;;20.70;52.06
70338;BME280;57757;53.198;19.646;2023-06-26T05:45:10;100106.06;;;20.80;52.03
70338;BME280;57757;53.198;19.646;2023-06-26T05:47:37;100103.89;;;20.91;51.91
70338;BME280;57757;53.198;19.646;2023-06-26T05:50:03;100101.06;;;21.01;51.87
70338;BME280;57757;53.198;19.646;2023-06-26T05:52:30;100099.57;;;21.13;51.96
70338;BME280;57757;53.198;19.646;2023-06-26T05:54:56;100100.59;;;21.26;51.85
70338;BME280;57757;53.198;19.646;2023-06-26T05:57:29;100094.95;;;21.39;51.80
70338;BME280;57757;53.198;19.646;2023-06-26T05:59:56;100094.25;;;21.49;51.77
70338;BME280;57757;53.198;19.646;2023-06-26T06:02:22;100093.55;;;21.59;51.73
70338;BME280;57757;53.198;19.646;2023-06-26T06:04:49;100091.21;;;21.69;51.50
70338;BME280;57757;53.198;19.646;2023-06-26T06:07:15;100090.33;;;21.82;51.57
70338;BME280;57757;53.198;19.646;2023-06-26T06:09:41;100087.81;;;21.92;51.41
70338;BME280;57757;53.198;19.646;2023-06-26T06:12:07;100083.58;;;22.02;51.40
70338;BME280;57757;53.198;19.646;2023-06-26T06:14:34;100086.55;;;22.12;51.28
70338;BME280;57757;53.198;19.646;2023-06-26T06:17:01;100086.83;;;22.23;51.16
70338;BME280;57757;53.198;19.646;2023-06-26T06:19:27;100087.03;;;22.32;51.12
70338;BME280;57757;53.198;19.646;2023-06-26T06:21:53;100087.11;;;22.40;50.89
70338;BME280;57757;53.198;19.646;2023-06-26T06:24:20;100089.20;;;22.51;50.90
70338;BME280;57757;53.198;19.646;2023-06-26T06:26:46;100087.45;;;22.58;50.77
70338;BME280;57757;53.198;19.646;2023-06-26T06:29:12;100083.54;;;22.65;50.61
70338;BME280;57757;53.198;19.646;2023-06-26T06:31:38;100080.58;;;22.72;50.62
70338;BME280;57757;53.198;19.646;2023-06-26T06:34:04;100080.80;;;22.75;50.43
70338;BME280;57757;53.198;19.646;2023-06-26T06:36:30;100079.20;;;22.80;50.41
70338;BME280;57757;53.198;19.646;2023-06-26T06:38:57;100080.75;;;22.88;50.31
70338;BME280;57757;53.198;19.646;2023-06-26T06:41:23;100080.44;;;22.96;50.22
70338;BME280;57757;53.198;19.646;2023-06-26T06:43:49;100079.30;;;23.04;49.89
70338;BME280;57757;53.198;19.646;2023-06-26T06:46:15;100078.06;;;23.09;49.87
70338;BME280;57757;53.198;19.646;2023-06-26T06:48:41;100079.63;;;23.19;49.77
70338;BME280;57757;53.198;19.646;2023-06-26T06:51:07;100076.27;;;23.27;49.35
70338;BME280;57757;53.198;19.646;2023-06-26T06:53:35;100075.83;;;23.38;49.39
70338;BME280;57757;53.198;19.646;2023-06-26T06:56:01;100076.73;;;23.49;49.25
70338;BME280;57757;53.198;19.646;2023-06-26T06:58:28;100077.27;;;23.58;48.94
70338;BME280;57757;53.198;19.646;2023-06-26T07:00:54;100073.39;;;23.66;49.05
70338;BME280;57757;53.198;19.646;2023-06-26T07:03:21;100076.33;;;23.76;48.89
70338;BME280;57757;53.198;19.646;2023-06-26T07:05:48;100074.19;;;23.85;48.74
70338;BME280;57757;53.198;19.646;2023-06-26T07:08:14;100073.11;;;23.96;48.74
70338;BME280;57757;53.198;19.646;2023-06-26T07:10:40;100069.73;;;24.07;48.54
70338;BME280;57757;53.198;19.646;2023-06-26T07:13:06;100071.00;;;24.16;48.47
70338;BME280;57757;53.198;19.646;2023-06-26T07:15:32;100071.95;;;24.24;48.42
70338;BME280;57757;53.198;19.646;2023-06-26T07:17:59;100070.51;;;24.33;48.35
70338;BME280;57757;53.198;19.646;2023-06-26T07:20:25;100071.60;;;24.43;48.12
70338;BME280;57757;53.198;19.646;2023-06-26T07:22:52;100070.14;;;24.52;47.88
70338;BME280;57757;53.198;19.646;2023-06-26T07:25:18;100069.38;;;24.61;47.86
70338;BME280;57757;53.198;19.646;2023-06-26T07:27:44;100069.44;;;24.69;47.54
70338;BME280;57757;53.198;19.646;2023-06-26T07:30:11;100069.30;;;24.75;47.21
70338;BME280;57757;53.198;19.646;2023-06-26T07:32:37;100073.11;;;24.78;46.93
70338;BME280;57757;53.198;19.646;2023-06-26T07:35:04;100070.31;;;24.80;46.92
70338;BME280;57757;53.198;19.646;2023-06-26T07:37:30;100070.50;;;24.84;46.82
70338;BME280;57757;53.198;19.646;2023-06-26T07:39:57;100069.58;;;24.91;46.81
70338;BME280;57757;53.198;19.646;2023-06-26T07:42:23;100067.42;;;24.97;46.70
70338;BME280;57757;53.198;19.646;2023-06-26T07:44:49;100069.08;;;25.03;46.21
70338;BME280;57757;53.198;19.646;2023-06-26T07:47:15;100066.26;;;25.04;46.17
70338;BME280;57757;53.198;19.646;2023-06-26T07:49:41;100070.46;;;25.11;46.15
70338;BME280;57757;53.198;19.646;2023-06-26T07:52:07;100063.48;;;25.18;46.05
70338;BME280;57757;53.198;19.646;2023-06-26T07:54:36;100062.77;;;25.22;45.97
70338;BME280;57757;53.198;19.646;2023-06-26T07:57:04;100063.13;;;25.27;45.79
70338;BME280;57757;53.198;19.646;2023-06-26T07:59:35;100060.35;;;25.21;45.43
70338;BME280;57757;53.198;19.646;2023-06-26T08:02:01;100059.35;;;25.23;45.62
70338;BME280;57757;53.198;19.646;2023-06-26T08:04:29;100057.95;;;25.29;45.45
70338;BME280;57757;53.198;19.646;2023-06-26T08:07:01;100055.94;;;25.35;45.39
70338;BME280;57757;53.198;19.646;2023-06-26T08:09:28;100052.69;;;25.44;45.21
70338;BME280;57757;53.198;19.646;2023-06-26T08:11:55;100055.20;;;25.52;45.02
70338;BME280;57757;53.198;19.646;2023-06-26T08:14:22;100051.84;;;25.60;44.79
70338;BME280;57757;53.198;19.646;2023-06-26T08:16:49;100052.29;;;25.67;44.78
70338;BME280;57757;53.198;19.646;2023-06-26T08:19:16;100052.43;;;25.76;44.49
70338;BME280;57757;53.198;19.646;2023-06-26T08:21:44;100051.47;;;25.82;44.18
70338;BME280;57757;53.198;19.646;2023-06-26T08:24:10;100045.70;;;25.87;44.12
70338;BME280;57757;53.198;19.646;2023-06-26T08:26:39;100047.00;;;25.94;44.03
70338;BME280;57757;53.198;19.646;2023-06-26T08:29:05;100047.84;;;26.02;43.70
70338;BME280;57757;53.198;19.646;2023-06-26T08:31:38;100046.19;;;26.09;43.66
70338;BME280;57757;53.198;19.646;2023-06-26T08:34:05;100042.60;;;26.15;43.82
70338;BME280;57757;53.198;19.646;2023-06-26T08:36:31;100042.08;;;26.23;43.55
70338;BME280;57757;53.198;19.646;2023-06-26T08:38:58;100042.57;;;26.34;43.50
70338;BME280;57757;53.198;19.646;2023-06-26T08:41:24;100043.62;;;26.43;43.41
70338;BME280;57757;53.198;19.646;2023-06-26T08:43:51;100043.37;;;26.52;43.21
70338;BME280;57757;53.198;19.646;2023-06-26T08:46:19;100041.23;;;26.59;42.99
70338;BME280;57757;53.198;19.646;2023-06-26T08:48:49;100042.46;;;26.73;42.79
70338;BME280;57757;53.198;19.646;2023-06-26T08:51:21;100041.06;;;26.86;42.59
70338;BME280;57757;53.198;19.646;2023-06-26T08:56:22;100034.44;;;27.07;42.21
70338;BME280;57757;53.198;19.646;2023-06-26T08:58:50;100035.15;;;27.17;42.22
70338;BME280;57757;53.198;19.646;2023-06-26T09:01:16;100031.91;;;27.24;42.09
70338;BME280;57757;53.198;19.646;2023-06-26T09:03:43;100033.02;;;27.32;41.88
70338;BME280;57757;53.198;19.646;2023-06-26T09:06:09;100038.66;;;27.38;41.74
70338;BME280;57757;53.198;19.646;2023-06-26T09:08:35;100033.97;;;27.35;41.32
70338;BME280;57757;53.198;19.646;2023-06-26T09:11:02;100033.95;;;27.35;41.46
70338;BME280;57757;53.198;19.646;2023-06-26T09:13:29;100033.33;;;27.38;41.11
70338;BME280;57757;53.198;19.646;2023-06-26T09:15:56;100033.86;;;27.43;40.96
70338;BME280;57757;53.198;19.646;2023-06-26T09:18:23;100031.77;;;27.48;40.57
70338;BME280;57757;53.198;19.646;2023-06-26T09:20:49;100031.35;;;27.49;40.29
70338;BME280;57757;53.198;19.646;2023-06-26T09:23:16;100024.00;;;27.49;40.11
70338;BME280;57757;53.198;19.646;2023-06-26T09:25:42;100020.30;;;27.56;40.13
70338;BME280;57757;53.198;19.646;2023-06-26T09:28:10;100016.55;;;27.69;40.06
70338;BME280;57757;53.198;19.646;2023-06-26T09:30:37;100010.56;;;27.84;40.20
70338;BME280;57757;53.198;19.646;2023-06-26T09:33:20;100013.71;;;27.99;40.07
70338;BME280;57757;53.198;19.646;2023-06-26T09:35:47;100011.96;;;28.14;39.78
70338;BME280;57757;53.198;19.646;2023-06-26T09:38:14;100016.43;;;28.23;39.48
70338;BME280;57757;53.198;19.646;2023-06-26T09:40:41;100016.62;;;28.35;39.31
70338;BME280;57757;53.198;19.646;2023-06-26T09:43:13;100014.49;;;28.40;38.84
70338;BME280;57757;53.198;19.646;2023-06-26T09:45:40;100012.80;;;28.44;38.73
70338;BME280;57757;53.198;19.646;2023-06-26T09:48:07;100015.90;;;28.58;38.54
70338;BME280;57757;53.198;19.646;2023-06-26T09:50:35;100010.69;;;28.60;38.02
70338;BME280;57757;53.198;19.646;2023-06-26T09:53:10;100009.58;;;28.71;38.22
70338;BME280;57757;53.198;19.646;2023-06-26T09:55:37;100009.58;;;28.87;38.31
70338;BME280;57757;53.198;19.646;2023-06-26T09:58:03;100011.48;;;29.15;38.29
70338;BME280;57757;53.198;19.646;2023-06-26T10:00:31;100011.64;;;29.46;38.06
70338;BME280;57757;53.198;19.646;2023-06-26T10:03:00;100009.39;;;29.74;37.84
70338;BME280;57757;53.198;19.646;2023-06-26T10:05:27;100012.55;;;30.08;37.31
70338;BME280;57757;53.198;19.646;2023-06-26T10:07:54;100008.73;;;30.30;37.09
70338;BME280;57757;53.198;19.646;2023-06-26T10:10:23;100010.02;;;30.61;37.07
70338;BME280;57757;53.198;19.646;2023-06-26T10:12:52;100007.19;;;30.91;36.61
70338;BME280;57757;53.198;19.646;2023-06-26T10:15:21;100004.49;;;31.22;36.44
70338;BME280;57757;53.198;19.646;2023-06-26T10:17:49;100001.01;;;31.49;36.25
70338;BME280;57757;53.198;19.646;2023-06-26T10:20:16;99994.85;;;31.75;36.11
70338;BME280;57757;53.198;19.646;2023-06-26T10:22:45;99995.77;;;31.95;35.76
70338;BME280;57757;53.198;19.646;2023-06-26T10:25:17;99992.17;;;32.16;35.55
70338;BME280;57757;53.198;19.646;2023-06-26T10:27:49;99992.66;;;32.44;35.51
70338;BME280;57757;53.198;19.646;2023-06-26T10:30:20;99991.16;;;32.78;35.26
70338;BME280;57757;53.198;19.646;2023-06-26T10:32:48;99992.77;;;33.06;34.74
70338;BME280;57757;53.198;19.646;2023-06-26T10:35:15;99985.81;;;33.26;34.63
70338;BME280;57757;53.198;19.646;2023-06-26T10:37:47;99988.12;;;33.45;34.33
70338;BME280;57757;53.198;19.646;2023-06-26T10:40:21;99982.23;;;33.67;33.96
70338;BME280;57757;53.198;19.646;2023-06-26T10:42:47;99978.30;;;33.90;33.66
70338;BME280;57757;53.198;19.646;2023-06-26T10:45:20;99977.02;;;34.12;33.29
70338;BME280;57757;53.198;19.646;2023-06-26T10:47:48;99975.70;;;34.36;32.99
70338;BME280;57757;53.198;19.646;2023-06-26T10:55:48;99970.06;;;35.04;32.53
70338;BME280;57757;53.198;19.646;2023-06-26T11:06:24;99963.14;;;36.24;31.10
70338;BME280;57757;53.198;19.646;2023-06-26T11:08:52;99964.02;;;36.50;30.87
70338;BME280;57757;53.198;19.646;2023-06-26T11:11:21;99962.56;;;36.76;30.54
70338;BME280;57757;53.198;19.646;2023-06-26T11:13:48;99954.66;;;36.79;29.94
70338;BME280;57757;53.198;19.646;2023-06-26T11:16:15;99951.59;;;36.87;30.03
70338;BME280;57757;53.198;19.646;2023-06-26T11:18:41;99950.08;;;37.04;29.71
70338;BME280;57757;53.198;19.646;2023-06-26T11:21:09;99951.38;;;37.06;29.05
70338;BME280;57757;53.198;19.646;2023-06-26T11:23:40;99947.80;;;36.88;28.67
70338;BME280;57757;53.198;19.646;2023-06-26T11:26:22;99942.42;;;36.92;28.87
70338;BME280;57757;53.198;19.646;2023-06-26T11:28:55;99944.47;;;37.05;28.33
70338;BME280;57757;53.198;19.646;2023-06-26T11:33:57;99943.23;;;36.87;27.89
70338;BME280;57757;53.198;19.646;2023-06-26T11:36:25;99937.11;;;36.69;27.67
70338;BME280;57757;53.198;19.646;2023-06-26T11:38:55;99932.58;;;36.77;27.67
70338;BME280;57757;53.198;19.646;2023-06-26T11:41:23;99930.26;;;37.02;27.66
70338;BME280;57757;53.198;19.646;2023-06-26T11:43:51;99931.68;;;37.31;27.29
70338;BME280;57757;53.198;19.646;2023-06-26T11:46:21;99931.79;;;37.38;27.08
70338;BME280;57757;53.198;19.646;2023-06-26T11:48:48;99929.37;;;37.48;26.80
70338;BME280;57757;53.198;19.646;2023-06-26T11:51:15;99929.92;;;37.90;26.74
70338;BME280;57757;53.198;19.646;2023-06-26T11:53:44;99927.39;;;38.41;26.52
70338;BME280;57757;53.198;19.646;2023-06-26T11:56:12;99927.23;;;38.75;26.07
70338;BME280;57757;53.198;19.646;2023-06-26T12:01:41;99924.30;;;39.71;25.57
70338;BME280;57757;53.198;19.646;2023-06-26T12:04:09;99920.67;;;39.87;25.32
70338;BME280;57757;53.198;19.646;2023-06-26T12:06:38;99920.72;;;39.95;25.01
70338;BME280;57757;53.198;19.646;2023-06-26T12:09:07;99917.52;;;40.10;25.05
70338;BME280;57757;53.198;19.646;2023-06-26T12:11:37;99916.73;;;40.55;24.90
70338;BME280;57757;53.198;19.646;2023-06-26T12:14:05;99909.88;;;40.99;24.61
70338;BME280;57757;53.198;19.646;2023-06-26T12:16:33;99904.23;;;41.40;24.43
70338;BME280;57757;53.198;19.646;2023-06-26T12:19:04;99902.16;;;41.91;24.23
70338;BME280;57757;53.198;19.646;2023-06-26T12:24:07;99898.71;;;42.36;23.51
70338;BME280;57757;53.198;19.646;2023-06-26T12:26:34;99901.38;;;42.66;23.23
70338;BME280;57757;53.198;19.646;2023-06-26T12:29:11;99903.27;;;42.86;22.89
70338;BME280;57757;53.198;19.646;2023-06-26T12:31:45;99898.88;;;42.81;22.61
70338;BME280;57757;53.198;19.646;2023-06-26T12:34:13;99896.77;;;42.76;22.57
70338;BME280;57757;53.198;19.646;2023-06-26T12:36:44;99892.61;;;42.84;22.47
70338;BME280;57757;53.198;19.646;2023-06-26T12:39:11;99891.89;;;43.19;22.17
70338;BME280;57757;53.198;19.646;2023-06-26T12:41:55;99891.27;;;43.47;21.72
70338;BME280;57757;53.198;19.646;2023-06-26T12:44:25;99892.58;;;43.21;21.15
70338;BME280;57757;53.198;19.646;2023-06-26T12:46:55;99888.23;;;42.28;20.90
70338;BME280;57757;53.198;19.646;2023-06-26T12:49:29;99881.23;;;41.01;20.80
70338;BME280;57757;53.198;19.646;2023-06-26T12:51:59;99876.98;;;39.87;20.82
70338;BME280;57757;53.198;19.646;2023-06-26T12:54:27;99874.16;;;39.29;20.94
70338;BME280;57757;53.198;19.646;2023-06-26T12:56:53;99866.30;;;39.57;20.96
70338;BME280;57757;53.198;19.646;2023-06-26T12:59:21;99862.75;;;40.05;20.77
70338;BME280;57757;53.198;19.646;2023-06-26T13:01:47;99859.21;;;40.85;20.94
70338;BME280;57757;53.198;19.646;2023-06-26T13:04:14;99857.91;;;41.37;20.46
70338;BME280;57757;53.198;19.646;2023-06-26T13:06:40;99859.45;;;41.68;20.26
70338;BME280;57757;53.198;19.646;2023-06-26T13:09:06;99855.55;;;42.29;20.21
70338;BME280;57757;53.198;19.646;2023-06-26T13:11:33;99859.78;;;42.95;19.99